Time;durP1;ratioP1;P1;durP2;ratioP2;P2;SDS_P1;SDS_P2;PMS_P1;PMS_P2;Temp;Humidity;BMP_temperature;BMP_pressure;BME280_temperature;BME280_humidity;BME280_pressure;Samples;Min_cycle;Max_cycle;Signal;HPM_P1;HPM_P2
2023/06/14 00:02:27;;;;;;;27.10;7.97;;;16.30;93.30;;;;;;5073939;28;20105;-77
2023/06/14 00:04:54;;;;;;;15.40;7.00;;;16.30;93.90;;;;;;5070459;28;20056;-78
2023/06/14 00:07:36;;;;;;;16.85;7.43;;;16.30;92.90;;;;;;5055643;28;20129;-78
2023/06/14 00:10:04;;;;;;;23.05;6.70;;;16.30;93.10;;;;;;5088180;28;20552;-77
2023/06/14 00:12:32;;;;;;;22.35;6.82;;;16.30;93.10;;;;;;5069673;28;20045;-78
2023/06/14 00:15:01;;;;;;;15.05;6.15;;;16.30;92.90;;;;;;5071678;28;20139;-78
2023/06/14 00:17:31;;;;;;;24.17;7.13;;;16.30;93.40;;;;;;5071123;28;20045;-78
2023/06/14 00:19:58;;;;;;;22.20;7.13;;;16.30;93.10;;;;;;5071978;28;20084;-77
2023/06/14 00:22:28;;;;;;;19.45;6.80;;;16.30;92.60;;;;;;5066250;28;20041;-78
2023/06/14 00:24:55;;;;;;;14.30;6.60;;;16.20;92.60;;;;;;5073383;28;20045;-78
2023/06/14 00:27:23;;;;;;;20.02;7.55;;;16.20;92.70;;;;;;5071977;28;20045;-77
2023/06/14 00:29:51;;;;;;;21.45;7.35;;;16.10;92.80;;;;;;5071909;28;20048;-78
2023/06/14 00:32:24;;;;;;;17.50;6.95;;;16.10;93.00;;;;;;5066351;28;20048;-78
2023/06/14 00:34:51;;;;;;;16.13;6.68;;;16.00;93.20;;;;;;5072939;28;20071;-77
2023/06/14 00:37:19;;;;;;;21.50;6.90;;;16.00;93.50;;;;;;5071849;28;20060;-78
2023/06/14 00:39:48;;;;;;;25.00;7.53;;;15.90;93.40;;;;;;5070537;28;20048;-78
2023/06/14 00:42:25;;;;;;;29.95;8.77;;;15.90;93.40;;;;;;5072142;28;20052;-78
2023/06/14 00:44:53;;;;;;;33.20;7.82;;;15.90;93.50;;;;;;5067276;28;20053;-78
2023/06/14 00:47:21;;;;;;;30.75;8.55;;;15.90;94.00;;;;;;5034866;28;20053;-78
2023/06/14 00:49:52;;;;;;;53.13;10.30;;;15.90;94.30;;;;;;5056427;28;20040;-78
2023/06/14 00:52:20;;;;;;;52.15;9.02;;;15.80;94.10;;;;;;5294300;22;21072;-78
2023/06/14 00:54:49;;;;;;;44.80;8.68;;;15.80;94.00;;;;;;5098974;28;20096;-79
2023/06/14 00:57:18;;;;;;;52.88;9.52;;;15.80;94.50;;;;;;5108631;28;20075;-79
2023/06/14 00:59:49;;;;;;;43.70;8.95;;;15.80;94.20;;;;;;5069346;28;20147;-77
2023/06/14 01:02:18;;;;;;;44.00;9.52;;;15.80;94.30;;;;;;5091327;28;20067;-78
2023/06/14 01:04:48;;;;;;;48.63;9.20;;;15.70;94.40;;;;;;5092139;28;20044;-78
2023/06/14 01:07:26;;;;;;;39.15;7.97;;;15.70;94.70;;;;;;5071103;28;20048;-77
2023/06/14 01:10:12;;;;;;;37.70;8.23;;;15.70;94.60;;;;;;5085580;28;20086;-77
2023/06/14 01:12:48;;;;;;;39.03;8.70;;;15.70;94.70;;;;;;5080315;28;20055;-77
2023/06/14 01:15:17;;;;;;;40.55;8.52;;;15.70;94.70;;;;;;5091158;28;20086;-76
2023/06/14 01:17:48;;;;;;;35.95;7.93;;;15.60;94.80;;;;;;5102906;28;20089;-76
2023/06/14 01:20:17;;;;;;;29.90;8.02;;;15.70;94.80;;;;;;5090995;28;20051;-77
2023/06/14 01:22:52;;;;;;;36.47;8.18;;;15.70;94.60;;;;;;5090156;28;20044;-76
2023/06/14 01:25:22;;;;;;;42.58;9.25;;;15.70;94.60;;;;;;5090018;28;20052;-77
2023/06/14 01:27:53;;;;;;;21.88;7.60;;;15.70;94.60;;;;;;5089278;28;20580;-76
2023/06/14 01:30:23;;;;;;;32.75;7.32;;;15.70;94.50;;;;;;5090978;28;20470;-76
2023/06/14 01:32:51;;;;;;;20.88;7.18;;;15.80;94.90;;;;;;5092163;28;20056;-76
2023/06/14 01:35:19;;;;;;;29.95;8.88;;;15.80;94.60;;;;;;5088310;28;20050;-77
2023/06/14 01:37:50;;;;;;;28.05;7.93;;;15.80;94.60;;;;;;5090844;28;20488;-77
2023/06/14 01:40:19;;;;;;;33.72;6.53;;;15.70;94.40;;;;;;5091445;28;20139;-77
2023/06/14 01:42:49;;;;;;;18.92;6.75;;;15.80;94.40;;;;;;5090682;28;20044;-77
2023/06/14 01:45:17;;;;;;;17.90;6.82;;;15.80;94.40;;;;;;5084835;28;20058;-76
2023/06/14 01:47:46;;;;;;;13.32;5.60;;;15.80;94.50;;;;;;5089305;28;20039;-77
2023/06/14 01:50:14;;;;;;;17.77;5.72;;;15.90;94.30;;;;;;5073698;28;20056;-77
2023/06/14 01:52:41;;;;;;;22.67;5.70;;;15.80;94.10;;;;;;5086919;28;20086;-76
2023/06/14 01:55:12;;;;;;;14.65;6.30;;;15.80;94.40;;;;;;5054510;28;20516;-75
2023/06/14 01:57:40;;;;;;;15.93;7.10;;;15.80;94.20;;;;;;5076887;28;20546;-76
2023/06/14 02:00:12;;;;;;;22.98;6.60;;;15.80;94.20;;;;;;5090394;28;20055;-76
2023/06/14 02:02:40;;;;;;;32.85;7.95;;;15.80;94.20;;;;;;5084846;28;20044;-76
2023/06/14 02:05:08;;;;;;;31.17;6.70;;;15.80;94.30;;;;;;5091873;28;20044;-76
2023/06/14 02:07:36;;;;;;;21.02;6.95;;;15.80;94.50;;;;;;5089317;28;20134;-76
2023/06/14 02:10:04;;;;;;;25.75;6.65;;;15.90;94.30;;;;;;5107204;28;20402;-76
2023/06/14 02:12:35;;;;;;;28.83;7.15;;;15.90;94.20;;;;;;5085882;28;20135;-76
2023/06/14 02:15:05;;;;;;;24.50;6.70;;;15.90;94.10;;;;;;5090529;28;20080;-76
2023/06/14 02:17:35;;;;;;;24.35;6.75;;;15.90;94.10;;;;;;5090147;28;20047;-76
2023/06/14 02:20:09;;;;;;;22.42;7.07;;;15.90;94.10;;;;;;5097687;28;20039;-76
2023/06/14 02:22:36;;;;;;;29.77;6.90;;;15.90;94.10;;;;;;5088250;28;20044;-76
2023/06/14 02:25:06;;;;;;;29.33;7.43;;;15.90;94.10;;;;;;5089062;28;20036;-76
2023/06/14 02:27:36;;;;;;;28.50;7.35;;;15.90;94.10;;;;;;5073088;28;20048;-76
2023/06/14 02:30:07;;;;;;;28.60;6.53;;;15.90;94.10;;;;;;5084445;28;20130;-76
2023/06/14 02:32:36;;;;;;;20.30;6.35;;;16.00;94.00;;;;;;5089926;28;20051;-76
2023/06/14 02:35:05;;;;;;;19.40;5.70;;;16.00;94.00;;;;;;5089221;28;20044;-77
2023/06/14 02:37:35;;;;;;;30.42;7.00;;;16.00;93.90;;;;;;5089932;28;20044;-76
2023/06/14 02:40:02;;;;;;;25.52;6.72;;;16.00;93.80;;;;;;5085353;28;20109;-76
2023/06/14 02:42:32;;;;;;;16.00;5.60;;;16.00;94.00;;;;;;5088962;28;20415;-75
2023/06/14 02:45:02;;;;;;;25.27;5.93;;;16.00;94.20;;;;;;5089980;28;20130;-76
2023/06/14 02:47:33;;;;;;;28.05;6.10;;;16.00;94.20;;;;;;5087660;28;20048;-76
2023/06/14 02:50:00;;;;;;;21.27;6.72;;;16.00;94.80;;;;;;5090272;28;20052;-77
2023/06/14 02:52:28;;;;;;;20.55;5.43;;;16.00;95.60;;;;;;5088819;28;20055;-76
2023/06/14 02:54:55;;;;;;;24.33;6.40;;;16.00;95.20;;;;;;5089723;28;20096;-76
2023/06/14 02:57:24;;;;;;;26.27;6.88;;;16.00;95.10;;;;;;5067373;28;20059;-77
2023/06/14 02:59:52;;;;;;;26.27;6.05;;;16.00;94.80;;;;;;5072907;28;20059;-78
2023/06/14 03:02:21;;;;;;;21.30;6.35;;;16.10;94.50;;;;;;5088588;28;20050;-78
2023/06/14 03:04:50;;;;;;;24.23;5.95;;;16.10;94.40;;;;;;5092214;28;20144;-77
2023/06/14 03:07:20;;;;;;;22.90;6.93;;;16.20;94.40;;;;;;5081195;28;20131;-76
2023/06/14 03:09:50;;;;;;;19.48;6.32;;;16.20;94.90;;;;;;5089756;28;20044;-76
2023/06/14 03:12:18;;;;;;;29.80;6.72;;;16.20;94.90;;;;;;5103068;28;20135;-75
2023/06/14 03:14:46;;;;;;;20.02;6.28;;;16.20;94.90;;;;;;5070194;28;20043;-76
2023/06/14 03:17:17;;;;;;;29.05;6.80;;;16.20;95.10;;;;;;5096875;28;20134;-78
2023/06/14 03:19:45;;;;;;;18.92;6.03;;;16.20;96.10;;;;;;5094837;28;20088;-76
2023/06/14 03:22:15;;;;;;;21.00;5.20;;;16.20;97.00;;;;;;5107016;28;20062;-77
2023/06/14 03:24:44;;;;;;;21.77;6.07;;;16.20;97.70;;;;;;5083898;28;20044;-77
2023/06/14 03:27:16;;;;;;;25.97;5.60;;;16.20;98.70;;;;;;5089431;28;20044;-77
2023/06/14 03:29:46;;;;;;;25.05;6.05;;;16.30;98.20;;;;;;5073042;28;20052;-77
2023/06/14 03:32:14;;;;;;;31.52;7.65;;;16.30;98.60;;;;;;5089615;28;20068;-77
2023/06/14 03:34:46;;;;;;;21.55;6.68;;;16.30;98.60;;;;;;5085996;28;20048;-76
2023/06/14 03:37:19;;;;;;;17.38;5.28;;;16.30;98.60;;;;;;5093432;28;20047;-76
2023/06/14 03:39:48;;;;;;;15.32;5.25;;;16.40;98.70;;;;;;5095110;28;20052;-76
2023/06/14 03:42:20;;;;;;;19.48;5.85;;;16.50;98.10;;;;;;5071832;28;20462;-76
2023/06/14 03:44:49;;;;;;;12.90;5.05;;;16.50;98.00;;;;;;5086334;28;20409;-78
2023/06/14 03:47:18;;;;;;;11.82;5.00;;;16.60;97.90;;;;;;5072614;28;20625;-78
2023/06/14 03:49:47;;;;;;;7.18;3.80;;;16.70;97.50;;;;;;5072638;28;20052;-78
2023/06/14 03:52:16;;;;;;;14.73;3.50;;;16.80;96.30;;;;;;5082615;28;20048;-78
2023/06/14 03:54:46;;;;;;;10.75;3.67;;;17.00;95.60;;;;;;5109922;28;20131;-78
2023/06/14 03:57:14;;;;;;;6.47;2.85;;;17.10;94.70;;;;;;5072411;28;20040;-79
2023/06/14 03:59:43;;;;;;;7.50;3.45;;;17.20;93.60;;;;;;5072354;28;20135;-79
2023/06/14 04:02:11;;;;;;;11.25;3.13;;;17.40;92.60;;;;;;5079002;28;20048;-78
2023/06/14 04:04:39;;;;;;;7.72;2.90;;;17.50;92.20;;;;;;5072522;28;20064;-76
2023/06/14 04:07:08;;;;;;;7.43;3.33;;;17.60;91.70;;;;;;5055562;28;20082;-76
2023/06/14 04:09:36;;;;;;;10.15;4.10;;;17.70;91.10;;;;;;5072702;28;20044;-76
2023/06/14 04:12:05;;;;;;;8.27;3.10;;;17.80;90.80;;;;;;5092491;28;20086;-78
2023/06/14 04:14:33;;;;;;;6.10;2.75;;;17.90;90.50;;;;;;5092400;28;20048;-76
2023/06/14 04:17:02;;;;;;;7.72;3.30;;;18.00;90.10;;;;;;5092163;28;20071;-77
2023/06/14 04:19:29;;;;;;;5.45;2.97;;;18.10;89.40;;;;;;5105803;28;20087;-76
2023/06/14 04:21:59;;;;;;;6.90;2.65;;;18.20;88.90;;;;;;5092161;28;20067;-76
2023/06/14 04:24:34;;;;;;;12.38;3.63;;;18.30;89.30;;;;;;5075368;28;20147;-76
2023/06/14 04:27:03;;;;;;;4.70;2.80;;;18.40;89.50;;;;;;5092152;28;20060;-76
2023/06/14 04:29:31;;;;;;;10.55;3.50;;;18.40;88.10;;;;;;5088852;28;20498;-77
2023/06/14 04:32:09;;;;;;;4.68;3.85;;;18.50;86.00;;;;;;5091044;28;20126;-77
2023/06/14 04:34:39;;;;;;;6.65;3.38;;;18.60;85.50;;;;;;5071885;28;20500;-77
2023/06/14 04:37:11;;;;;;;5.43;3.85;;;18.70;85.20;;;;;;5081238;28;20044;-77
2023/06/14 04:39:44;;;;;;;11.82;3.63;;;18.80;84.40;;;;;;5087359;28;20063;-77
2023/06/14 04:42:14;;;;;;;12.50;3.90;;;18.80;83.40;;;;;;5087378;28;20048;-77
2023/06/14 04:44:43;;;;;;;7.57;3.42;;;19.00;83.60;;;;;;5090760;28;20051;-77
2023/06/14 04:47:12;;;;;;;5.18;3.28;;;19.10;83.90;;;;;;5088226;28;20501;-76
2023/06/14 04:49:40;;;;;;;3.10;2.65;;;19.20;83.90;;;;;;5091694;28;20134;-77
2023/06/14 04:52:09;;;;;;;5.15;2.72;;;19.20;82.50;;;;;;5083087;28;20052;-77
2023/06/14 04:54:42;;;;;;;5.90;2.75;;;19.20;82.50;;;;;;5072069;28;20207;-77
2023/06/14 04:57:22;;;;;;;8.27;2.67;;;19.30;82.70;;;;;;5085126;28;20489;-78
2023/06/14 04:59:54;;;;;;;10.20;4.93;;;19.30;82.90;;;;;;5072757;28;20178;-78
2023/06/14 05:02:27;;;;;;;7.40;2.85;;;19.40;83.30;;;;;;5089870;28;20109;-78
2023/06/14 05:04:56;;;;;;;5.37;3.10;;;19.40;83.40;;;;;;5086166;28;20436;-77
2023/06/14 05:07:25;;;;;;;8.05;2.60;;;19.50;83.90;;;;;;5081707;28;20075;-76
2023/06/14 05:09:53;;;;;;;5.72;2.63;;;19.50;84.50;;;;;;5081094;28;20051;-77
2023/06/14 05:12:23;;;;;;;7.53;2.80;;;19.50;84.80;;;;;;5085290;28;20044;-76
2023/06/14 05:14:51;;;;;;;2.97;2.40;;;19.60;84.80;;;;;;5090870;28;20470;-78
2023/06/14 05:17:22;;;;;;;4.72;2.63;;;19.70;84.90;;;;;;5070932;28;20051;-75
2023/06/14 05:19:49;;;;;;;4.82;2.85;;;19.80;84.70;;;;;;5070211;28;20040;-75
2023/06/14 05:22:23;;;;;;;8.00;2.55;;;19.90;85.30;;;;;;5080938;28;20048;-76
2023/06/14 05:24:50;;;;;;;7.15;2.88;;;20.00;86.10;;;;;;5089571;28;20553;-74
2023/06/14 05:27:18;;;;;;;5.05;2.65;;;20.20;85.90;;;;;;5082575;28;20135;-75
2023/06/14 05:29:48;;;;;;;8.43;2.60;;;20.40;86.00;;;;;;5077371;28;20048;-75
2023/06/14 05:32:16;;;;;;;4.72;2.60;;;20.50;85.60;;;;;;5082371;28;20044;-75
2023/06/14 05:34:44;;;;;;;5.60;2.53;;;20.80;85.20;;;;;;5077222;28;20048;-74
2023/06/14 05:37:13;;;;;;;6.57;2.83;;;20.90;84.70;;;;;;5071573;28;20484;-75
2023/06/14 05:39:40;;;;;;;3.95;2.45;;;21.10;84.60;;;;;;5072212;28;20127;-77
2023/06/14 05:42:08;;;;;;;7.72;2.40;;;21.40;82.20;;;;;;5058546;28;20036;-77
2023/06/14 05:44:36;;;;;;;8.95;2.45;;;21.70;79.80;;;;;;5086663;28;20044;-75
2023/06/14 05:47:06;;;;;;;6.35;2.55;;;22.00;78.80;;;;;;5081223;28;20128;-76
2023/06/14 05:49:33;;;;;;;7.50;2.55;;;22.50;77.70;;;;;;5081662;28;20048;-77
2023/06/14 05:52:01;;;;;;;7.78;2.97;;;22.80;75.90;;;;;;5081339;28;20504;-77
2023/06/14 05:54:29;;;;;;;5.57;3.20;;;23.30;74.40;;;;;;5075263;28;20048;-77
2023/06/14 05:57:01;;;;;;;7.32;2.80;;;23.60;72.60;;;;;;5072142;28;20054;-77
2023/06/14 05:59:32;;;;;;;9.20;2.97;;;24.10;72.00;;;;;;5082675;28;20635;-77
2023/06/14 06:01:59;;;;;;;7.65;2.85;;;24.60;70.00;;;;;;5081274;28;20048;-77
2023/06/14 06:04:34;;;;;;;4.85;2.88;;;25.10;68.90;;;;;;5076016;28;20496;-77
2023/06/14 06:07:02;;;;;;;17.38;11.30;;;25.60;66.80;;;;;;5077569;28;20200;-76
2023/06/14 06:09:30;;;;;;;8.40;4.05;;;25.80;64.50;;;;;;5078855;28;20413;-75
2023/06/14 06:12:02;;;;;;;7.80;2.50;;;26.10;63.10;;;;;;5083183;28;20044;-75
2023/06/14 06:14:29;;;;;;;4.57;2.55;;;26.40;62.00;;;;;;5089291;28;20593;-76
2023/06/14 06:16:57;;;;;;;5.60;2.20;;;26.50;59.70;;;;;;5085134;28;20044;-74
2023/06/14 06:19:25;;;;;;;5.68;2.83;;;26.70;58.10;;;;;;5081148;28;20044;-76
2023/06/14 06:21:54;;;;;;;20.92;10.02;;;27.00;57.90;;;;;;5070102;28;20049;-76
2023/06/14 06:24:21;;;;;;;9.38;3.03;;;27.10;56.90;;;;;;5070286;28;20044;-77
2023/06/14 06:26:49;;;;;;;3.78;2.92;;;27.20;55.90;;;;;;5070545;28;20053;-76
2023/06/14 06:29:16;;;;;;;7.28;2.67;;;27.20;56.20;;;;;;5073431;28;20048;-76
2023/06/14 06:31:45;;;;;;;10.88;3.17;;;27.50;56.70;;;;;;5090683;28;20507;-75
2023/06/14 06:34:12;;;;;;;6.45;2.97;;;27.50;55.60;;;;;;5085811;28;20222;-74
2023/06/14 06:36:40;;;;;;;13.73;2.90;;;27.50;55.30;;;;;;5073504;28;20407;-76
2023/06/14 06:39:10;;;;;;;12.10;4.00;;;27.30;55.10;;;;;;5071962;28;20040;-76
2023/06/14 06:41:39;;;;;;;8.95;2.80;;;27.10;56.10;;;;;;5090335;28;20052;-74
2023/06/14 06:44:07;;;;;;;8.10;2.92;;;27.20;54.60;;;;;;5089054;28;20541;-77
2023/06/14 06:46:39;;;;;;;10.27;2.75;;;27.20;54.70;;;;;;5087784;28;20052;-78
2023/06/14 06:49:08;;;;;;;7.45;3.03;;;27.20;55.00;;;;;;5081770;28;20054;-78
2023/06/14 06:52:30;;;;;;;;;;;;;;;;;;;;;
2023/06/14 06:55:08;;;;;;;12.02;3.45;;;27.90;55.10;;;;;;5094295;28;20055;-77
2023/06/14 06:57:36;;;;;;;8.77;3.47;;;28.10;54.90;;;;;;5090077;28;20485;-77
2023/06/14 07:00:07;;;;;;;7.55;3.30;;;28.20;54.20;;;;;;5078576;28;20053;-77
2023/06/14 07:02:37;;;;;;;5.60;2.63;;;28.40;53.20;;;;;;5070703;28;20519;-77
2023/06/14 07:05:05;;;;;;;8.15;3.30;;;28.70;52.20;;;;;;5079873;28;20048;-77
2023/06/14 07:07:33;;;;;;;3.22;2.92;;;28.80;52.80;;;;;;5090021;28;20093;-76
2023/06/14 07:10:04;;;;;;;6.93;2.78;;;29.10;51.40;;;;;;5091799;28;20131;-77
2023/06/14 07:12:35;;;;;;;4.43;2.60;;;29.30;51.40;;;;;;5089868;28;20067;-76
2023/06/14 07:15:03;;;;;;;3.30;2.60;;;29.70;52.00;;;;;;5082482;28;20063;-77
2023/06/14 07:17:33;;;;;;;8.45;2.70;;;29.90;50.10;;;;;;5072523;28;20516;-78
2023/06/14 07:20:11;;;;;;;6.32;3.33;;;30.10;49.10;;;;;;5083156;28;20056;-73
2023/06/14 07:22:40;;;;;;;67.03;5.55;;;30.80;51.40;;;;;;5065474;28;20471;-73
